Aviation Digital Data Service (ADDS)

Output produced by METARs form (2208 UTC 24 March 2019)
found at http://www.aviationweather.gov/metar/data/
 
GVAC 242100Z 36008KT 9999 SCT014 21/14 Q1015 NOSIG
TAF GVAC 241700Z 2418/2524 03010KT 9999 BKN015
       
GVBA 241900Z 35011KT 9999 SCT015 23/14 Q1014 NOSIG
TAF GVBA 241100Z 2412/2518 01010KT 9999 BKN015
       
GVSV 242100Z 07011KT 9999 FEW022 SCT025 22/14 Q1015 NOSIG
TAF GVSV 241700Z 2418/2524 06012KT 9999 SCT022